createdAt,value
2022-08-03T00:02:31.616Z,99668.03
2022-08-03T00:05:34.683Z,99660.53
2022-08-03T00:08:40.133Z,99659.88
2022-08-03T00:11:43.566Z,99661.94
2022-08-03T00:14:46.245Z,99667.59
2022-08-03T00:17:52.978Z,99650.72
2022-08-03T00:20:56.543Z,99659.03
2022-08-03T00:23:59.482Z,99660.31
2022-08-03T00:27:02.230Z,99660.44
2022-08-03T00:30:06.037Z,99658.47
2022-08-03T00:33:10.446Z,99658.13
2022-08-03T00:36:13.558Z,99662.97
2022-08-03T00:39:16.243Z,99656.22
2022-08-03T00:42:19.220Z,99657.25
2022-08-03T00:45:26.743Z,99644.38
2022-08-03T00:48:33.666Z,99650.31
2022-08-03T00:51:36.479Z,99656.38
2022-08-03T00:54:40.298Z,99649.41
2022-08-03T00:57:43.680Z,99652.41
2022-08-03T01:00:46.730Z,99647.19
2022-08-03T01:03:49.376Z,99648.91
2022-08-03T01:06:58.381Z,99640.91
2022-08-03T01:10:10.289Z,99650.31
2022-08-03T01:14:04.190Z,99628.84
2022-08-03T01:17:23.353Z,99645.69
2022-08-03T01:20:36.140Z,99645.59
2022-08-03T01:23:47.800Z,99644.50
2022-08-03T01:26:53.600Z,99650.94
2022-08-03T01:30:07.715Z,99656.16
2022-08-03T01:33:17.620Z,99653.69
2022-08-03T01:36:24.910Z,99651.03
2022-08-03T01:39:29.633Z,99639.34
2022-08-03T01:42:33.925Z,99640.66
2022-08-03T01:45:38.645Z,99652.78
2022-08-03T01:48:43.417Z,99651.41
2022-08-03T01:51:58.422Z,99639.03
2022-08-03T01:55:09.837Z,99638.53
2022-08-03T01:58:16.856Z,99637.50
2022-08-03T02:01:23.010Z,99639.50
2022-08-03T02:04:29.066Z,99628.47
2022-08-03T02:07:34.660Z,99630.09
2022-08-03T02:10:39.095Z,99626.41
2022-08-03T02:13:44.261Z,99622.91
2022-08-03T02:16:49.255Z,99627.16
2022-08-03T02:19:53.791Z,99633.53
2022-08-03T02:22:57.970Z,99639.53
2022-08-03T02:26:04.838Z,99636.88
2022-08-03T02:29:15.118Z,99630.06
2022-08-03T02:32:24.060Z,99632.69
2022-08-03T02:35:30.575Z,99627.59
2022-08-03T02:38:37.222Z,99630.06
2022-08-03T02:41:46.292Z,99632.06
2022-08-03T02:44:53.401Z,99633.50
2022-08-03T02:48:00.727Z,99634.09
2022-08-03T02:51:05.142Z,99630.19
2022-08-03T02:54:09.666Z,99623.66
2022-08-03T02:57:15.222Z,99627.41
2022-08-03T03:00:27.582Z,99634.47
2022-08-03T03:03:33.878Z,99635.22
2022-08-03T03:06:49.638Z,99634.31
2022-08-03T03:09:53.901Z,99628.44
2022-08-03T03:12:58.770Z,99625.63
2022-08-03T03:16:04.247Z,99630.53
2022-08-03T03:19:08.763Z,99629.03
2022-08-03T03:22:12.768Z,99622.63
2022-08-03T03:25:16.331Z,99637.88
2022-08-03T03:28:19.738Z,99636.66
2022-08-03T03:31:22.794Z,99637.50
2022-08-03T03:34:26.003Z,99633.63
2022-08-03T03:37:31.652Z,99621.22
2022-08-03T03:40:41.395Z,99632.59
2022-08-03T03:43:44.446Z,99616.78
2022-08-03T03:46:47.172Z,99636.75
2022-08-03T03:49:52.386Z,99631.66
2022-08-03T03:52:55.052Z,99630.03
2022-08-03T03:56:02.144Z,99637.41
2022-08-03T03:59:05.500Z,99640.75
2022-08-03T04:02:09.911Z,99634.03
2022-08-03T04:05:32.418Z,99638.59
2022-08-03T04:08:53.606Z,99648.34
2022-08-03T04:12:01.689Z,99637.19
2022-08-03T04:15:06.230Z,99645.75
2022-08-03T04:18:15.009Z,99654.34
2022-08-03T04:21:21.292Z,99664.97
2022-08-03T04:24:27.423Z,99655.88
2022-08-03T04:27:40.140Z,99672.66
2022-08-03T04:30:48.354Z,99664.38
2022-08-03T04:33:52.873Z,99679.34
2022-08-03T04:37:00.366Z,99683.56
2022-08-03T04:40:08.839Z,99680.63
2022-08-03T04:43:14.895Z,99682.28
2022-08-03T04:46:19.724Z,99688.50
2022-08-03T04:49:24.065Z,99674.69
2022-08-03T04:52:26.824Z,99685.12
2022-08-03T04:55:31.280Z,99691.00
2022-08-03T04:58:34.331Z,99701.03
2022-08-03T05:01:37.341Z,99689.16
2022-08-03T05:04:41.658Z,99685.28
2022-08-03T05:07:44.872Z,99681.34
2022-08-03T05:10:48.000Z,99674.78
2022-08-03T05:13:50.978Z,99690.19
2022-08-03T05:16:53.581Z,99676.81
2022-08-03T05:19:56.870Z,99691.25
2022-08-03T05:23:01.605Z,99691.91
2022-08-03T05:26:04.642Z,99702.59
2022-08-03T05:29:07.358Z,99696.44
2022-08-03T05:32:10.580Z,99703.19
2022-08-03T05:36:02.813Z,99696.53
2022-08-03T05:38:36.694Z,99694.38
2022-08-03T05:41:39.350Z,99696.09
2022-08-03T05:44:42.271Z,99697.94
2022-08-03T05:47:45.861Z,99694.50
2022-08-03T05:50:48.914Z,99701.13
2022-08-03T05:53:51.492Z,99701.31
2022-08-03T05:56:54.423Z,99699.19
2022-08-03T05:59:58.354Z,99705.56
2022-08-03T06:03:02.525Z,99705.13
2022-08-03T06:06:05.486Z,99712.16
2022-08-03T06:09:08.117Z,99698.63
2022-08-03T06:12:14.080Z,99705.59
2022-08-03T06:15:18.718Z,99712.41
2022-08-03T06:18:21.906Z,99710.53
2022-08-03T06:21:24.589Z,99714.69
2022-08-03T06:24:30.643Z,99721.94
2022-08-03T06:27:37.160Z,99710.31
2022-08-03T06:30:41.659Z,99716.66
2022-08-03T06:34:30.213Z,99712.03
2022-08-03T06:37:07.408Z,99727.41
2022-08-03T06:40:29.872Z,99726.56
2022-08-03T06:43:36.014Z,99723.78
2022-08-03T06:46:38.708Z,99720.09
2022-08-03T06:49:41.817Z,99729.00
2022-08-03T06:52:44.525Z,99716.75
2022-08-03T06:55:51.118Z,99710.00
2022-08-03T06:58:56.679Z,99731.50
2022-08-03T07:01:59.693Z,99739.72
2022-08-03T07:05:02.921Z,99717.50
2022-08-03T07:08:06.002Z,99728.78
2022-08-03T07:11:08.711Z,99713.44
2022-08-03T07:14:11.988Z,99709.81
2022-08-03T07:17:14.733Z,99713.66
2022-08-03T07:20:18.400Z,99724.59
2022-08-03T07:23:21.024Z,99723.59
2022-08-03T07:26:23.983Z,99721.69
2022-08-03T07:29:26.678Z,99704.66
2022-08-03T07:32:31.715Z,99725.28
2022-08-03T07:35:34.666Z,99726.66
2022-08-03T07:38:37.766Z,99733.50
2022-08-03T07:41:41.379Z,99724.31
2022-08-03T07:44:44.917Z,99714.97
2022-08-03T07:47:53.580Z,99729.28
2022-08-03T07:50:57.120Z,99725.31
2022-08-03T07:54:01.011Z,99724.91
2022-08-03T07:57:04.214Z,99726.19
2022-08-03T08:00:13.971Z,99738.59
2022-08-03T08:03:17.569Z,99732.22
2022-08-03T08:06:21.214Z,99745.97
2022-08-03T08:09:24.893Z,99737.78
2022-08-03T08:12:28.098Z,99747.19
2022-08-03T08:15:31.723Z,99743.53
2022-08-03T08:18:34.560Z,99740.38
2022-08-03T08:21:53.561Z,99750.78
2022-08-03T08:25:04.467Z,99736.22
2022-08-03T08:28:22.412Z,99746.31
2022-08-03T08:31:30.029Z,99723.38
2022-08-03T08:34:32.910Z,99747.16
2022-08-03T08:37:35.739Z,99743.56
2022-08-03T08:40:39.430Z,99741.13
2022-08-03T08:43:42.403Z,99727.78
2022-08-03T08:46:46.059Z,99735.88
2022-08-03T08:50:09.344Z,99736.28
2022-08-03T08:53:17.476Z,99738.69
2022-08-03T08:56:25.611Z,99739.50
2022-08-03T08:59:48.310Z,99732.19
2022-08-03T09:02:52.397Z,99732.66
2022-08-03T09:05:56.507Z,99725.31
2022-08-03T09:08:59.328Z,99731.81
2022-08-03T09:12:35.047Z,99730.53
2022-08-03T09:15:33.824Z,99728.66
2022-08-03T09:18:37.165Z,99714.97
2022-08-03T09:21:39.981Z,99714.75
2022-08-03T09:25:21.679Z,99724.88
2022-08-03T09:28:52.774Z,99711.97
2022-08-03T09:31:45.710Z,99722.47
2022-08-03T09:34:50.405Z,99712.28
2022-08-03T09:38:13.960Z,99719.63
2022-08-03T09:41:20.208Z,99715.19
2022-08-03T09:44:35.193Z,99716.16
2022-08-03T09:47:37.945Z,99714.62
2022-08-03T09:51:14.110Z,99717.66
2022-08-03T09:54:27.701Z,99697.59
2022-08-03T09:57:33.645Z,99706.81
2022-08-03T10:00:55.050Z,99707.00
2022-08-03T10:04:03.153Z,99698.19
2022-08-03T10:07:09.886Z,99699.38
2022-08-03T10:10:29.347Z,99697.06
2022-08-03T10:13:34.587Z,99697.19
2022-08-03T10:16:39.743Z,99679.91
2022-08-03T10:19:42.550Z,99686.66
2022-08-03T10:22:47.108Z,99668.97
2022-08-03T10:25:55.909Z,99670.50
2022-08-03T10:29:01.105Z,99671.28
2022-08-03T10:32:09.440Z,99676.97
2022-08-03T10:35:20.851Z,99655.75
2022-08-03T10:38:30.359Z,99679.09
2022-08-03T10:41:39.915Z,99659.19
2022-08-03T10:44:42.750Z,99649.78
2022-08-03T10:47:48.325Z,99646.44
2022-08-03T10:50:52.077Z,99654.97
2022-08-03T10:53:55.853Z,99650.22
2022-08-03T10:57:17.367Z,99650.69
2022-08-03T11:00:24.536Z,99655.19
2022-08-03T11:03:33.245Z,99649.25
2022-08-03T11:06:37.385Z,99634.72
2022-08-03T11:09:51.166Z,99651.63
2022-08-03T11:13:07.150Z,99641.63
2022-08-03T11:16:22.359Z,99646.09
2022-08-03T11:19:57.074Z,99639.41
2022-08-03T11:23:01.790Z,99654.44
2022-08-03T11:26:11.889Z,99641.94
2022-08-03T11:29:29.367Z,99632.22
2022-08-03T11:32:38.541Z,99632.03
2022-08-03T11:36:00.081Z,99624.84
2022-08-03T11:39:18.253Z,99646.19
2022-08-03T11:42:27.159Z,99617.06
2022-08-03T11:45:31.319Z,99638.62
2022-08-03T11:48:34.973Z,99641.44
2022-08-03T11:51:40.064Z,99612.25
2022-08-03T11:54:43.399Z,99609.78
2022-08-03T11:59:00.850Z,99607.03
2022-08-03T12:01:12.371Z,99594.09
2022-08-03T12:04:16.412Z,99594.12
2022-08-03T12:07:25.074Z,99594.22
2022-08-03T12:10:50.046Z,99591.75
2022-08-03T12:14:35.673Z,99591.75
2022-08-03T12:17:15.728Z,99590.31
2022-08-03T12:20:34.639Z,99590.47
2022-08-03T12:23:38.825Z,99579.00
2022-08-03T12:26:58.681Z,99597.25
2022-08-03T12:30:04.346Z,99601.22
2022-08-03T12:33:16.025Z,99599.25
2022-08-03T12:36:20.032Z,99592.41
2022-08-03T12:39:30.955Z,99591.16
2022-08-03T12:42:36.101Z,99582.41
2022-08-03T12:45:38.773Z,99567.47
2022-08-03T12:49:04.811Z,99573.53
2022-08-03T12:52:08.773Z,99571.12
2022-08-03T12:55:20.843Z,99562.72
2022-08-03T12:58:36.388Z,99576.47
2022-08-03T13:01:55.235Z,99572.56
2022-08-03T13:05:00.185Z,99572.19
2022-08-03T13:08:03.246Z,99571.56
2022-08-03T13:11:19.433Z,99567.66
2022-08-03T13:14:23.657Z,99564.06
2022-08-03T13:17:27.645Z,99557.53
2022-08-03T13:20:30.803Z,99556.19
2022-08-03T13:23:33.946Z,99557.03
2022-08-03T13:26:36.839Z,99547.12
2022-08-03T13:29:39.494Z,99539.53
2022-08-03T13:32:42.895Z,99550.66
2022-08-03T13:35:45.558Z,99546.69
2022-08-03T13:38:48.482Z,99556.56
2022-08-03T13:41:53.018Z,99531.84
2022-08-03T13:44:55.994Z,99553.22
2022-08-03T13:47:58.642Z,99541.28
2022-08-03T13:51:11.545Z,99546.56
2022-08-03T13:54:25.178Z,99526.41
2022-08-03T13:58:04.730Z,99529.69
2022-08-03T14:00:51.946Z,99528.41
2022-08-03T14:03:56.432Z,99506.75
2022-08-03T14:06:58.999Z,99522.06
2022-08-03T14:10:01.985Z,99513.63
2022-08-03T14:13:05.290Z,99525.75
2022-08-03T14:16:10.006Z,99506.34
2022-08-03T14:19:12.728Z,99520.16
2022-08-03T14:22:15.613Z,99526.63
2022-08-03T14:25:18.300Z,99508.78
2022-08-03T14:28:23.717Z,99516.88
2022-08-03T14:32:11.093Z,99504.00
2022-08-03T14:34:49.742Z,99515.31
2022-08-03T14:37:52.486Z,99508.44
2022-08-03T14:40:56.514Z,99509.59
2022-08-03T14:44:01.451Z,99504.03
2022-08-03T14:47:04.693Z,99499.19
2022-08-03T14:50:38.922Z,99480.59
2022-08-03T14:53:31.235Z,99497.16
2022-08-03T14:56:33.854Z,99482.25
2022-08-03T14:59:56.080Z,99486.62
2022-08-03T15:02:59.866Z,99486.69
2022-08-03T15:06:02.962Z,99482.25
2022-08-03T15:09:21.339Z,99484.28
2022-08-03T15:12:26.302Z,99484.66
2022-08-03T15:15:29.334Z,99492.31
2022-08-03T15:18:32.370Z,99491.44
2022-08-03T15:21:47.326Z,99484.22
2022-08-03T15:24:50.752Z,99474.94
2022-08-03T15:28:03.687Z,99487.38
2022-08-03T15:31:07.663Z,99474.81
2022-08-03T15:34:12.038Z,99490.97
2022-08-03T15:37:16.682Z,99487.72
2022-08-03T15:40:19.516Z,99485.75
2022-08-03T15:43:23.525Z,99476.03
2022-08-03T15:46:29.609Z,99488.53
2022-08-03T15:49:32.997Z,99482.44
2022-08-03T15:52:37.215Z,99480.44
2022-08-03T15:55:40.563Z,99482.81
2022-08-03T15:59:04.294Z,99478.81
2022-08-03T16:02:06.053Z,99482.91
2022-08-03T16:05:24.534Z,99475.16
2022-08-03T16:08:59.899Z,99464.53
2022-08-03T16:12:03.272Z,99474.13
2022-08-03T16:15:06.943Z,99481.72
2022-08-03T16:18:09.925Z,99467.94
2022-08-03T16:21:16.347Z,99470.41
2022-08-03T16:24:27.622Z,99469.78
2022-08-03T16:28:00.509Z,99479.00
2022-08-03T16:30:53.807Z,99465.56
2022-08-03T16:33:56.510Z,99477.97
2022-08-03T16:37:16.499Z,99456.06
2022-08-03T16:40:26.189Z,99469.66
2022-08-03T16:43:29.242Z,99471.28
2022-08-03T16:46:31.918Z,99448.66
2022-08-03T16:49:54.965Z,99460.31
2022-08-03T16:52:57.849Z,99464.72
2022-08-03T16:56:01.082Z,99455.72
2022-08-03T16:59:04.994Z,99473.34
2022-08-03T17:02:25.010Z,99460.31
2022-08-03T17:05:32.582Z,99458.59
2022-08-03T17:08:55.121Z,99467.28
2022-08-03T17:11:58.375Z,99465.88
2022-08-03T17:15:04.599Z,99470.16
2022-08-03T17:18:17.794Z,99474.44
2022-08-03T17:21:29.518Z,99480.22
2022-08-03T17:24:40.805Z,99491.22
2022-08-03T17:28:50.492Z,99473.56
2022-08-03T17:31:23.411Z,99488.31
2022-08-03T17:34:34.293Z,99490.53
2022-08-03T17:37:58.446Z,99497.47
2022-08-03T17:41:00.394Z,99490.00
2022-08-03T17:44:28.768Z,99489.63
2022-08-03T17:47:41.834Z,99498.13
2022-08-03T17:50:55.033Z,99472.28
2022-08-03T17:54:18.373Z,99482.81
2022-08-03T17:58:02.789Z,99494.66
2022-08-03T18:01:59.299Z,99495.91
2022-08-03T18:05:02.604Z,99487.69
2022-08-03T18:08:28.590Z,99505.59
2022-08-03T18:11:35.501Z,99502.59
2022-08-03T18:15:00.667Z,99507.25
2022-08-03T18:18:10.489Z,99508.75
2022-08-03T18:21:16.881Z,99509.88
2022-08-03T18:24:21.046Z,99516.69
2022-08-03T18:27:45.908Z,99514.16
2022-08-03T18:30:53.320Z,99521.19
2022-08-03T18:34:33.304Z,99522.25
2022-08-03T18:37:51.797Z,99507.88
2022-08-03T18:40:55.150Z,99527.84
2022-08-03T18:44:06.882Z,99524.31
2022-08-03T18:47:50.856Z,99523.53
2022-08-03T18:51:09.690Z,99533.28
2022-08-03T18:54:51.047Z,99538.84
2022-08-03T18:57:55.696Z,99537.91
2022-08-03T19:01:58.235Z,99533.63
2022-08-03T19:04:45.377Z,99544.16
2022-08-03T19:07:59.912Z,99550.87
2022-08-03T19:11:07.797Z,99538.28
2022-08-03T19:14:17.527Z,99554.31
2022-08-03T19:17:22.675Z,99555.34
2022-08-03T19:20:34.900Z,99556.84
2022-08-03T19:23:38.436Z,99559.34
2022-08-03T19:26:43.479Z,99568.13
2022-08-03T19:29:58.797Z,99570.03
2022-08-03T19:33:05.783Z,99567.78
2022-08-03T19:36:10.858Z,99570.66
2022-08-03T19:39:14.384Z,99561.22
2022-08-03T19:42:25.301Z,99556.66
2022-08-03T19:46:05.356Z,99548.94
2022-08-03T19:49:15.115Z,99561.75
2022-08-03T19:52:24.173Z,99576.50
2022-08-03T19:55:37.515Z,99573.72
2022-08-03T19:58:43.196Z,99554.25
2022-08-03T20:01:50.742Z,99571.00
2022-08-03T20:04:54.099Z,99571.31
2022-08-03T20:08:03.673Z,99567.88
2022-08-03T20:11:09.185Z,99575.28
2022-08-03T20:14:20.536Z,99573.78
2022-08-03T20:17:55.228Z,99574.47
2022-08-03T20:20:53.992Z,99579.34
2022-08-03T20:24:03.035Z,99575.41
2022-08-03T20:27:30.075Z,99578.19
2022-08-03T20:30:33.507Z,99572.63
2022-08-03T20:33:46.163Z,99572.41
2022-08-03T20:36:52.062Z,99569.91
2022-08-03T20:39:54.752Z,99560.19
2022-08-03T20:42:58.418Z,99571.06
2022-08-03T20:46:31.719Z,99574.06
2022-08-03T20:49:24.325Z,99568.22
2022-08-03T20:52:27.931Z,99573.78
2022-08-03T20:55:48.265Z,99576.97
2022-08-03T20:58:55.598Z,99572.28
2022-08-03T21:01:58.506Z,99575.00
2022-08-03T21:05:03.181Z,99559.19
2022-08-03T21:08:15.559Z,99573.72
2022-08-03T21:11:19.465Z,99579.44
2022-08-03T21:14:38.944Z,99562.38
2022-08-03T21:17:48.144Z,99554.59
2022-08-03T21:20:51.667Z,99571.38
2022-08-03T21:23:56.506Z,99562.38
2022-08-03T21:27:00.371Z,99580.16
2022-08-03T21:30:10.842Z,99563.25
2022-08-03T21:33:15.401Z,99576.28
2022-08-03T21:36:17.998Z,99584.81
2022-08-03T21:39:21.044Z,99589.94
2022-08-03T21:42:24.155Z,99594.88
2022-08-03T21:45:27.169Z,99588.87
2022-08-03T21:48:36.980Z,99586.75
2022-08-03T21:51:40.097Z,99595.06
2022-08-03T21:54:44.403Z,99589.56
2022-08-03T21:57:53.406Z,99597.37
2022-08-03T22:00:58.166Z,99593.31
2022-08-03T22:04:05.473Z,99599.34
2022-08-03T22:07:09.619Z,99588.28
2022-08-03T22:10:13.548Z,99586.34
2022-08-03T22:13:43.013Z,99573.94
2022-08-03T22:16:41.257Z,99576.56
2022-08-03T22:19:43.979Z,99599.41
2022-08-03T22:22:53.648Z,99584.56
2022-08-03T22:26:03.506Z,99580.00
2022-08-03T22:29:08.161Z,99602.03
2022-08-03T22:32:10.869Z,99601.88
2022-08-03T22:35:14.410Z,99607.56
2022-08-03T22:38:18.518Z,99614.28
2022-08-03T22:41:21.549Z,99612.16
2022-08-03T22:44:24.641Z,99604.34
2022-08-03T22:47:28.737Z,99600.22
2022-08-03T22:50:33.954Z,99611.31
2022-08-03T22:53:39.128Z,99605.59
2022-08-03T22:56:42.517Z,99598.22
2022-08-03T22:59:47.225Z,99607.88
2022-08-03T23:02:52.010Z,99612.25
2022-08-03T23:06:02.319Z,99612.56
2022-08-03T23:09:11.274Z,99597.06
2022-08-03T23:12:17.156Z,99611.19
2022-08-03T23:15:20.676Z,99615.75
2022-08-03T23:18:25.176Z,99610.38
2022-08-03T23:21:53.908Z,99612.47
2022-08-03T23:24:52.475Z,99602.34
2022-08-03T23:28:05.513Z,99610.13
2022-08-03T23:31:09.618Z,99599.63
2022-08-03T23:34:32.761Z,99608.41
2022-08-03T23:38:04.675Z,99608.41
2022-08-03T23:41:03.159Z,99600.84
2022-08-03T23:44:07.683Z,99591.19
2022-08-03T23:47:11.345Z,99594.88
2022-08-03T23:50:14.963Z,99608.88
2022-08-03T23:53:39.973Z,99612.03
2022-08-03T23:56:56.621Z,99613.06
